createdAt,value
2023-07-10T00:01:15.906Z,22.44
2023-07-10T00:04:14.782Z,22.49
2023-07-10T00:06:59.901Z,22.54
2023-07-10T00:09:51.750Z,22.50
2023-07-10T00:12:36.926Z,22.47
2023-07-10T00:15:29.764Z,22.33
2023-07-10T00:18:16.576Z,22.29
2023-07-10T00:21:07.752Z,22.19
2023-07-10T00:23:52.435Z,22.26
2023-07-10T00:26:45.754Z,22.32
2023-07-10T00:29:33.096Z,22.37
2023-07-10T00:32:24.785Z,22.45
2023-07-10T00:35:09.979Z,22.43
2023-07-10T00:38:09.763Z,22.47
2023-07-10T00:40:55.431Z,22.34
2023-07-10T00:43:53.768Z,22.39
2023-07-10T00:47:02.818Z,22.41
2023-07-10T00:50:00.770Z,22.38
2023-07-10T00:52:54.781Z,22.39
2023-07-10T00:55:46.756Z,22.25
2023-07-10T00:58:46.794Z,22.22
2023-07-10T01:01:31.833Z,22.21
2023-07-10T01:04:29.768Z,22.30
2023-07-10T01:07:24.778Z,22.33
2023-07-10T01:10:17.782Z,22.17
2023-07-10T01:13:02.926Z,22.14
2023-07-10T01:15:54.786Z,21.85
2023-07-10T01:18:41.998Z,21.89
2023-07-10T01:21:37.807Z,21.90
2023-07-10T01:24:22.913Z,22.01
2023-07-10T01:27:19.794Z,22.02
2023-07-10T01:30:15.151Z,21.84
2023-07-10T01:33:07.762Z,21.92
2023-07-10T01:35:56.146Z,21.62
2023-07-10T01:39:01.811Z,21.62
2023-07-10T01:41:53.792Z,21.78
2023-07-10T01:44:41.441Z,21.86
2023-07-10T01:47:32.872Z,21.51
2023-07-10T01:50:18.239Z,21.55
2023-07-10T01:53:10.802Z,21.68
2023-07-10T01:55:55.916Z,21.70
2023-07-10T01:58:47.776Z,21.51
2023-07-10T02:01:42.452Z,21.42
2023-07-10T02:04:34.927Z,21.42
2023-07-10T02:07:26.813Z,21.37
2023-07-10T02:10:20.824Z,21.44
2023-07-10T02:13:07.150Z,21.50
2023-07-10T02:15:58.796Z,21.40
2023-07-10T02:18:50.794Z,21.38
2023-07-10T02:21:35.571Z,21.36
2023-07-10T02:24:26.788Z,21.20
2023-07-10T02:27:11.644Z,21.29
2023-07-10T02:30:03.022Z,21.27
2023-07-10T02:32:47.964Z,21.13
2023-07-10T02:35:39.819Z,21.19
2023-07-10T02:38:25.027Z,21.11
2023-07-10T02:41:16.804Z,20.99
2023-07-10T02:44:01.622Z,20.87
2023-07-10T02:46:52.808Z,20.87
2023-07-10T02:49:37.893Z,20.87
2023-07-10T02:52:29.825Z,20.82
2023-07-10T02:55:14.873Z,20.86
2023-07-10T02:58:08.074Z,20.80
2023-07-10T03:00:58.782Z,20.75
2023-07-10T03:03:57.810Z,20.94
2023-07-10T03:06:42.896Z,20.97
2023-07-10T03:09:33.808Z,20.87
2023-07-10T03:12:18.824Z,20.84
2023-07-10T03:15:11.826Z,20.88
2023-07-10T03:17:57.044Z,20.98
2023-07-10T03:20:47.827Z,20.92
2023-07-10T03:23:32.762Z,20.90
2023-07-10T03:26:23.883Z,20.86
2023-07-10T03:29:18.828Z,20.78
2023-07-10T03:32:04.381Z,20.72
2023-07-10T03:34:56.846Z,20.73
2023-07-10T03:37:42.009Z,20.77
2023-07-10T03:40:32.820Z,20.73
2023-07-10T03:43:17.692Z,20.62
2023-07-10T03:46:08.835Z,20.63
2023-07-10T03:48:53.744Z,20.60
2023-07-10T03:51:44.849Z,20.58
2023-07-10T03:54:33.446Z,20.64
2023-07-10T03:57:24.848Z,20.75
2023-07-10T04:00:16.851Z,20.76
2023-07-10T04:03:14.959Z,20.84
2023-07-10T04:06:15.897Z,20.76
2023-07-10T04:09:07.851Z,20.78
2023-07-10T04:11:52.739Z,20.81
2023-07-10T04:14:45.844Z,20.90
2023-07-10T04:17:31.617Z,20.89
2023-07-10T04:20:24.837Z,20.68
2023-07-10T04:23:16.154Z,20.62
2023-07-10T04:26:08.076Z,20.60
2023-07-10T04:28:56.289Z,20.59
2023-07-10T04:31:47.906Z,20.50
2023-07-10T04:34:35.808Z,20.46
2023-07-10T04:37:26.863Z,20.50
2023-07-10T04:40:12.593Z,20.42
2023-07-10T04:43:04.048Z,20.40
2023-07-10T04:45:50.305Z,20.47
2023-07-10T04:48:41.952Z,20.32
2023-07-10T04:51:27.233Z,20.23
2023-07-10T04:54:18.890Z,20.17
2023-07-10T04:57:13.059Z,20.24
2023-07-10T04:59:58.436Z,20.12
2023-07-10T05:02:50.214Z,20.30
2023-07-10T05:05:35.365Z,20.38
2023-07-10T05:08:29.879Z,20.31
2023-07-10T05:11:15.829Z,20.42
2023-07-10T05:14:07.883Z,20.29
2023-07-10T05:16:53.767Z,20.17
2023-07-10T05:19:47.113Z,20.28
2023-07-10T05:22:32.112Z,20.27
2023-07-10T05:25:23.871Z,20.45
2023-07-10T05:28:15.891Z,20.34
2023-07-10T05:31:08.871Z,19.98
2023-07-10T05:33:59.879Z,20.23
2023-07-10T05:36:44.704Z,20.52
2023-07-10T05:39:37.107Z,20.76
2023-07-10T05:42:22.375Z,20.89
2023-07-10T05:45:14.921Z,20.64
2023-07-10T05:48:00.050Z,20.50
2023-07-10T05:50:54.883Z,20.62
2023-07-10T05:53:45.880Z,20.55
2023-07-10T05:56:32.286Z,20.40
2023-07-10T05:59:23.865Z,20.36
2023-07-10T06:02:17.992Z,20.39
2023-07-10T06:05:16.898Z,20.19
2023-07-10T06:08:01.887Z,20.63
2023-07-10T06:10:53.921Z,20.75
2023-07-10T06:13:38.824Z,20.89
2023-07-10T06:16:30.896Z,21.12
2023-07-10T06:19:17.941Z,21.36
2023-07-10T06:22:18.915Z,21.56
2023-07-10T06:25:04.315Z,21.36
2023-07-10T06:27:55.898Z,20.81
2023-07-10T06:30:43.685Z,21.24
2023-07-10T06:33:37.898Z,21.17
2023-07-10T06:36:28.914Z,21.32
2023-07-10T06:39:13.991Z,21.44
2023-07-10T06:42:04.913Z,21.30
2023-07-10T06:44:49.987Z,21.27
2023-07-10T06:47:47.955Z,21.41
2023-07-10T06:50:32.850Z,21.55
2023-07-10T06:53:27.386Z,21.41
2023-07-10T06:56:19.900Z,21.30
2023-07-10T06:59:04.751Z,21.47
2023-07-10T07:01:56.024Z,21.35
2023-07-10T07:04:48.930Z,21.59
2023-07-10T07:07:41.918Z,21.97
2023-07-10T07:10:26.961Z,21.83
2023-07-10T07:13:21.424Z,21.71
2023-07-10T07:16:12.927Z,22.03
2023-07-10T07:19:06.776Z,21.96
2023-07-10T07:22:05.908Z,21.82
2023-07-10T07:24:57.925Z,21.92
2023-07-10T07:27:43.169Z,21.96
2023-07-10T07:30:34.934Z,22.52
2023-07-10T07:33:21.448Z,22.93
2023-07-10T07:36:12.943Z,22.72
2023-07-10T07:38:57.662Z,22.72
2023-07-10T07:41:48.921Z,22.96
2023-07-10T07:44:33.868Z,22.98
2023-07-10T07:47:25.960Z,22.34
2023-07-10T07:50:11.053Z,22.74
2023-07-10T07:53:02.951Z,22.83
2023-07-10T07:55:48.073Z,22.51
2023-07-10T07:58:39.932Z,23.94
2023-07-10T08:01:25.173Z,24.48
2023-07-10T08:04:25.992Z,27.25
2023-07-10T08:07:18.043Z,27.99
2023-07-10T08:10:11.926Z,27.87
2023-07-10T08:13:03.937Z,28.07
2023-07-10T08:15:55.935Z,28.19
2023-07-10T08:18:42.076Z,29.55
2023-07-10T08:21:33.931Z,29.50
2023-07-10T08:24:18.817Z,29.73
2023-07-10T08:27:10.956Z,29.92
2023-07-10T08:29:56.175Z,30.74
2023-07-10T08:32:48.018Z,31.99
2023-07-10T08:35:33.219Z,30.24
2023-07-10T08:38:24.971Z,31.86
2023-07-10T08:41:22.007Z,29.25
2023-07-10T08:44:16.994Z,28.97
2023-07-10T08:47:11.745Z,29.19
2023-07-10T08:50:38.964Z,28.73
2023-07-10T08:53:34.950Z,31.58
2023-07-10T08:56:34.168Z,33.05
2023-07-10T08:59:34.985Z,32.66
2023-07-10T09:02:55.991Z,32.08
2023-07-10T09:05:53.972Z,29.93
2023-07-10T09:08:39.535Z,29.93
2023-07-10T09:11:32.971Z,29.98
2023-07-10T09:14:33.346Z,31.59
2023-07-10T09:17:44.000Z,31.55
2023-07-10T09:20:29.049Z,30.43
2023-07-10T09:23:32.095Z,29.50
2023-07-10T09:26:26.982Z,31.17
2023-07-10T09:29:11.772Z,31.85
2023-07-10T09:32:12.123Z,31.75
2023-07-10T09:35:00.571Z,32.78
2023-07-10T09:37:58.054Z,34.72
2023-07-10T09:40:48.603Z,33.28
2023-07-10T09:43:40.983Z,32.70
2023-07-10T09:46:38.100Z,31.89
2023-07-10T09:49:24.594Z,30.02
2023-07-10T09:52:28.999Z,31.15
2023-07-10T09:55:16.705Z,32.72
2023-07-10T09:58:10.004Z,32.44
2023-07-10T10:00:55.001Z,31.77
2023-07-10T10:03:51.003Z,32.16
2023-07-10T10:06:43.842Z,30.85
2023-07-10T10:09:37.038Z,31.69
2023-07-10T10:12:33.987Z,31.01
2023-07-10T10:15:37.355Z,31.28
2023-07-10T10:18:43.212Z,33.39
2023-07-10T10:21:32.943Z,32.38
2023-07-10T10:24:25.002Z,31.95
2023-07-10T10:27:41.234Z,32.59
2023-07-10T10:30:41.998Z,32.38
2023-07-10T10:34:00.028Z,29.92
2023-07-10T10:37:04.338Z,31.26
2023-07-10T10:40:04.999Z,32.24
2023-07-10T10:43:05.184Z,33.25
2023-07-10T10:46:08.283Z,32.01
2023-07-10T10:49:29.026Z,32.00
2023-07-10T10:52:24.369Z,31.64
2023-07-10T10:55:41.019Z,33.34
2023-07-10T10:58:43.129Z,32.23
2023-07-10T11:01:43.157Z,32.02
2023-07-10T11:04:41.077Z,31.04
2023-07-10T11:07:40.049Z,31.61
2023-07-10T11:10:37.192Z,32.60
2023-07-10T11:13:42.083Z,32.99
2023-07-10T11:16:37.078Z,32.17
2023-07-10T11:19:28.371Z,32.52
2023-07-10T11:22:35.058Z,33.48
2023-07-10T11:25:39.481Z,32.70
2023-07-10T11:28:37.052Z,31.43
2023-07-10T11:31:38.125Z,30.37
2023-07-10T11:34:23.097Z,31.60
2023-07-10T11:37:41.053Z,32.07
2023-07-10T11:40:29.241Z,29.68
2023-07-10T11:43:33.045Z,29.20
2023-07-10T11:46:24.068Z,29.04
2023-07-10T11:49:25.043Z,29.62
2023-07-10T11:52:23.064Z,29.11
2023-07-10T11:55:12.744Z,28.59
2023-07-10T11:58:34.067Z,28.35
2023-07-10T12:01:28.243Z,28.21
2023-07-10T12:04:26.496Z,28.07
2023-07-10T12:07:25.082Z,28.51
2023-07-10T12:10:12.416Z,28.48
2023-07-10T12:13:05.071Z,28.64
2023-07-10T12:15:53.498Z,28.31
2023-07-10T12:18:48.268Z,28.38
2023-07-10T12:21:40.079Z,28.56
2023-07-10T12:24:31.070Z,28.52
2023-07-10T12:30:22.068Z,27.77
2023-07-10T12:33:43.080Z,28.33
2023-07-10T12:36:34.735Z,28.38
2023-07-10T12:39:27.081Z,27.87
2023-07-10T12:42:35.426Z,28.17
2023-07-10T12:45:36.070Z,27.79
2023-07-10T12:48:28.088Z,28.28
2023-07-10T12:51:36.090Z,28.19
2023-07-10T12:54:36.074Z,28.34
2023-07-10T12:57:30.576Z,28.52
2023-07-10T13:00:22.081Z,28.12
2023-07-10T13:03:26.341Z,27.82
2023-07-10T13:06:25.111Z,28.06
2023-07-10T13:09:30.119Z,28.52
2023-07-10T13:12:22.066Z,27.83
2023-07-10T13:15:15.082Z,27.32
2023-07-10T13:18:01.293Z,27.49
2023-07-10T13:20:53.103Z,27.99
2023-07-10T13:23:37.820Z,28.43
2023-07-10T13:26:31.098Z,27.78
2023-07-10T13:29:16.136Z,28.10
2023-07-10T13:32:08.152Z,28.38
2023-07-10T13:34:53.164Z,28.23
2023-07-10T13:37:45.102Z,28.02
2023-07-10T13:40:38.128Z,27.17
2023-07-10T13:43:30.118Z,27.69
2023-07-10T13:46:29.826Z,27.77
2023-07-10T13:49:21.119Z,27.82
2023-07-10T13:52:06.730Z,27.94
2023-07-10T13:55:00.166Z,27.94
2023-07-10T13:57:45.643Z,27.87
2023-07-10T14:00:37.149Z,27.97
2023-07-10T14:03:33.126Z,28.29
2023-07-10T14:06:45.112Z,28.39
2023-07-10T14:09:38.125Z,28.19
2023-07-10T14:12:33.163Z,28.31
2023-07-10T14:15:27.123Z,28.45
2023-07-10T14:18:24.099Z,27.66
2023-07-10T14:21:19.108Z,27.88
2023-07-10T14:24:04.495Z,27.63
2023-07-10T14:26:57.115Z,27.88
2023-07-10T14:29:42.471Z,27.47
2023-07-10T14:32:34.150Z,27.91
2023-07-10T14:35:20.987Z,27.85
2023-07-10T14:38:39.171Z,27.15
2023-07-10T14:41:25.470Z,27.80
2023-07-10T14:44:17.144Z,28.05
2023-07-10T14:47:07.684Z,27.86
2023-07-10T14:50:00.225Z,27.99
2023-07-10T14:52:52.212Z,27.93
2023-07-10T14:55:43.144Z,27.66
2023-07-10T14:58:38.309Z,27.89
2023-07-10T15:01:23.346Z,27.63
2023-07-10T15:04:15.302Z,27.91
2023-07-10T15:07:14.165Z,28.02
2023-07-10T15:10:00.430Z,27.95
2023-07-10T15:12:53.152Z,28.04
2023-07-10T15:15:38.469Z,27.73
2023-07-10T15:18:32.217Z,27.82
2023-07-10T15:21:20.447Z,27.68
2023-07-10T15:24:27.486Z,27.59
2023-07-10T15:27:19.160Z,27.37
2023-07-10T15:30:04.211Z,27.25
2023-07-10T15:32:57.217Z,27.37
2023-07-10T15:35:42.674Z,27.67
2023-07-10T15:38:34.157Z,27.93
2023-07-10T15:41:32.177Z,27.75
2023-07-10T15:44:17.044Z,27.45
2023-07-10T15:47:08.279Z,27.02
2023-07-10T15:49:53.586Z,27.25
2023-07-10T15:52:49.179Z,27.32
2023-07-10T15:55:35.912Z,27.41
2023-07-10T15:58:31.309Z,27.41
2023-07-10T16:01:19.835Z,27.60
2023-07-10T16:04:38.161Z,27.52
2023-07-10T16:07:23.081Z,27.45
2023-07-10T16:10:19.190Z,27.49
2023-07-10T16:13:16.166Z,27.44
2023-07-10T16:16:08.218Z,27.53
2023-07-10T16:18:53.362Z,27.47
2023-07-10T16:21:46.201Z,27.20
2023-07-10T16:24:38.192Z,27.39
2023-07-10T16:27:23.067Z,27.25
2023-07-10T16:30:20.191Z,27.12
2023-07-10T16:33:11.769Z,27.05
2023-07-10T16:36:03.178Z,27.03
2023-07-10T16:38:54.197Z,27.17
2023-07-10T16:41:39.374Z,27.25
2023-07-10T16:44:31.203Z,27.08
2023-07-10T16:47:18.602Z,27.08
2023-07-10T16:50:10.201Z,27.13
2023-07-10T16:53:01.212Z,27.09
2023-07-10T16:55:46.503Z,27.13
2023-07-10T16:58:40.194Z,27.09
2023-07-10T17:01:27.643Z,27.11
2023-07-10T17:04:19.271Z,27.09
2023-07-10T17:07:11.416Z,27.12
2023-07-10T17:10:03.199Z,26.75
2023-07-10T17:12:48.704Z,26.78
2023-07-10T17:15:40.197Z,26.89
2023-07-10T17:18:36.204Z,26.95
2023-07-10T17:21:21.583Z,26.88
2023-07-10T17:24:26.222Z,26.77
2023-07-10T17:27:11.421Z,26.83
2023-07-10T17:30:03.200Z,26.79
2023-07-10T17:32:48.659Z,26.74
2023-07-10T17:35:40.195Z,26.73
2023-07-10T17:38:25.309Z,26.74
2023-07-10T17:41:27.222Z,26.72
2023-07-10T17:44:34.046Z,26.65
2023-07-10T17:47:26.250Z,26.54
2023-07-10T17:50:16.666Z,26.49
2023-07-10T17:53:08.214Z,26.45
2023-07-10T17:56:05.209Z,26.41
2023-07-10T17:58:56.235Z,26.17
2023-07-10T18:01:42.392Z,26.20
2023-07-10T18:04:34.229Z,26.13
2023-07-10T18:07:32.250Z,26.10
2023-07-10T18:10:17.151Z,25.98
2023-07-10T18:13:08.237Z,25.95
2023-07-10T18:15:53.486Z,25.96
2023-07-10T18:18:46.268Z,25.90
2023-07-10T18:21:38.212Z,25.89
2023-07-10T18:24:25.181Z,25.76
2023-07-10T18:27:25.238Z,25.77
2023-07-10T18:30:20.381Z,25.76
2023-07-10T18:33:14.029Z,25.72
2023-07-10T18:36:05.253Z,25.77
2023-07-10T18:38:50.022Z,25.70
2023-07-10T18:41:42.268Z,25.65
2023-07-10T18:44:27.223Z,25.63
2023-07-10T18:47:20.266Z,25.48
2023-07-10T18:50:13.257Z,25.36
2023-07-10T18:52:58.401Z,25.36
2023-07-10T18:55:51.255Z,25.45
2023-07-10T18:58:36.303Z,25.42
2023-07-10T19:01:28.322Z,25.31
2023-07-10T19:04:19.277Z,25.12
2023-07-10T19:07:20.335Z,25.04
2023-07-10T19:10:05.841Z,24.87
2023-07-10T19:12:57.246Z,24.81
2023-07-10T19:15:43.676Z,24.72
2023-07-10T19:18:40.494Z,24.67
2023-07-10T19:21:26.422Z,24.63
2023-07-10T19:24:28.428Z,24.60
2023-07-10T19:27:13.365Z,24.48
2023-07-10T19:30:05.291Z,24.33
2023-07-10T19:32:57.265Z,24.35
2023-07-10T19:35:42.236Z,24.35
2023-07-10T19:38:36.339Z,24.26
2023-07-10T19:41:21.570Z,24.09
2023-07-10T19:44:13.260Z,24.11
2023-07-10T19:46:58.195Z,24.11
2023-07-10T19:49:50.274Z,24.08
2023-07-10T19:52:35.469Z,24.03
2023-07-10T19:55:28.277Z,23.69
2023-07-10T19:58:14.977Z,23.64
2023-07-10T20:01:06.336Z,23.64
2023-07-10T20:03:57.772Z,23.60
2023-07-10T20:06:56.311Z,23.58
2023-07-10T20:09:41.031Z,23.46
2023-07-10T20:12:32.300Z,23.42
2023-07-10T20:15:17.270Z,23.30
2023-07-10T20:18:08.321Z,23.26
2023-07-10T20:20:54.165Z,23.22
2023-07-10T20:23:46.342Z,23.23
2023-07-10T20:26:37.309Z,23.09
2023-07-10T20:29:29.291Z,23.02
2023-07-10T20:32:14.736Z,23.01
2023-07-10T20:35:06.345Z,23.00
2023-07-10T20:37:51.894Z,22.99
2023-07-10T20:40:43.290Z,22.97
2023-07-10T20:43:29.156Z,22.91
2023-07-10T20:46:26.346Z,22.87
2023-07-10T20:49:29.301Z,22.82
2023-07-10T20:55:08.312Z,22.54
2023-07-10T20:57:53.459Z,22.56
2023-07-10T21:00:45.316Z,22.54
2023-07-10T21:03:37.417Z,22.47
2023-07-10T21:06:36.384Z,22.45
2023-07-10T21:09:34.320Z,22.41
2023-07-10T21:12:27.328Z,22.32
2023-07-10T21:15:14.569Z,22.20
2023-07-10T21:18:06.349Z,22.12
2023-07-10T21:20:52.182Z,21.94
2023-07-10T21:23:44.345Z,21.86
2023-07-10T21:26:32.337Z,21.81
2023-07-10T21:29:24.317Z,21.84
2023-07-10T21:32:19.414Z,21.78
2023-07-10T21:35:35.317Z,21.76
2023-07-10T21:38:23.010Z,21.74
2023-07-10T21:41:36.326Z,21.72
2023-07-10T21:44:23.725Z,21.65
2023-07-10T21:47:18.360Z,21.54
2023-07-10T21:50:22.351Z,21.51
2023-07-10T21:53:07.475Z,21.47
2023-07-10T21:56:04.551Z,21.45
2023-07-10T21:58:55.712Z,21.42
2023-07-10T22:01:47.333Z,21.40
2023-07-10T22:04:38.328Z,21.40
2023-07-10T22:07:36.346Z,21.27
2023-07-10T22:10:21.275Z,21.14
2023-07-10T22:13:21.356Z,21.20
2023-07-10T22:16:13.334Z,21.14
2023-07-10T22:19:00.733Z,21.11
2023-07-10T22:21:52.333Z,21.06
2023-07-10T22:24:37.628Z,20.97
2023-07-10T22:27:29.341Z,21.05
2023-07-10T22:30:14.444Z,20.94
2023-07-10T22:33:08.357Z,20.95
2023-07-10T22:35:53.341Z,20.89
2023-07-10T22:38:45.342Z,20.87
2023-07-10T22:41:35.758Z,20.89
2023-07-10T22:44:28.359Z,20.89
2023-07-10T22:47:13.514Z,20.79
2023-07-10T22:50:05.364Z,20.65
2023-07-10T22:52:50.670Z,20.55
2023-07-10T22:55:43.369Z,20.53
2023-07-10T22:58:28.500Z,20.49
2023-07-10T23:01:21.357Z,20.29
2023-07-10T23:04:12.412Z,20.29
2023-07-10T23:07:11.331Z,20.35
2023-07-10T23:10:05.394Z,20.30
2023-07-10T23:12:50.439Z,20.35
2023-07-10T23:15:41.381Z,20.42
2023-07-10T23:18:26.551Z,20.44
2023-07-10T23:21:18.348Z,20.42
2023-07-10T23:24:05.789Z,20.35
2023-07-10T23:26:57.345Z,20.31
2023-07-10T23:29:42.483Z,20.16
2023-07-10T23:32:38.374Z,20.11
2023-07-10T23:35:24.428Z,20.06
2023-07-10T23:38:16.344Z,20.05
2023-07-10T23:41:01.413Z,20.11
2023-07-10T23:43:53.347Z,20.07
2023-07-10T23:46:38.481Z,20.03
2023-07-10T23:49:29.368Z,20.05
2023-07-10T23:52:14.516Z,20.08
2023-07-10T23:55:05.371Z,19.99
2023-07-10T23:57:50.881Z,19.97
